<?xml version="1.0" encoding="UTF-8" standalone="no" ?>
<gpx xmlns="http://www.topografix.com/GPX/1/1" xmlns:xsi="http://www.w3.org/2001/XMLSchema-instance" xsi:schemaLocation="http://www.topografix.com/GPX/1/1 http://www.topografix.com/GPX/1/1/gpx.xsd" version="1.1" creator="VisuGPX - https://www.visugpx.com">
  <metadata>
    <name>CSJC La Romieu - Condom</name>
    <desc><![CDATA[Chemin de Saint Jacques de Compostelle du Puy
Etape : La Romieu - Condom]]></desc>
  </metadata>
  <trk>
    <name><![CDATA[ACTIVE LOG091630]]></name>
    <trkseg>
      <trkpt lat="43.98228" lon="0.4962">
        <ele>187</ele>
        <time>2014-06-23T07:16:29Z</time>
      </trkpt>
      <trkpt lat="43.98229" lon="0.49612">
        <ele>186</ele>
        <time>2014-06-23T07:16:56Z</time>
      </trkpt>
      <trkpt lat="43.9823" lon="0.49605">
        <ele>186</ele>
        <time>2014-06-23T07:17:01Z</time>
      </trkpt>
      <trkpt lat="43.98226" lon="0.49581">
        <ele>187</ele>
        <time>2014-06-23T07:17:18Z</time>
      </trkpt>
      <trkpt lat="43.98228" lon="0.4958">
        <ele>187</ele>
        <time>2014-06-23T07:18:05Z</time>
      </trkpt>
      <trkpt lat="43.98224" lon="0.49565">
        <ele>188</ele>
        <time>2014-06-23T07:18:33Z</time>
      </trkpt>
      <trkpt lat="43.98219" lon="0.4955">
        <ele>188</ele>
        <time>2014-06-23T07:18:44Z</time>
      </trkpt>
      <trkpt lat="43.98218" lon="0.49548">
        <ele>189</ele>
        <time>2014-06-23T07:18:46Z</time>
      </trkpt>
      <trkpt lat="43.98217" lon="0.49543">
        <ele>189</ele>
        <time>2014-06-23T07:18:50Z</time>
      </trkpt>
      <trkpt lat="43.98213" lon="0.49534">
        <ele>189</ele>
        <time>2014-06-23T07:18:57Z</time>
      </trkpt>
      <trkpt lat="43.98211" lon="0.4953">
        <ele>189</ele>
        <time>2014-06-23T07:19:00Z</time>
      </trkpt>
      <trkpt lat="43.9821" lon="0.49528">
        <ele>189</ele>
        <time>2014-06-23T07:19:02Z</time>
      </trkpt>
      <trkpt lat="43.9821" lon="0.49526">
        <ele>189</ele>
        <time>2014-06-23T07:19:03Z</time>
      </trkpt>
      <trkpt lat="43.98209" lon="0.49524">
        <ele>189</ele>
        <time>2014-06-23T07:19:05Z</time>
      </trkpt>
      <trkpt lat="43.98206" lon="0.49517">
        <ele>190</ele>
        <time>2014-06-23T07:19:10Z</time>
      </trkpt>
      <trkpt lat="43.98201" lon="0.49504">
        <ele>190</ele>
        <time>2014-06-23T07:19:21Z</time>
      </trkpt>
      <trkpt lat="43.982" lon="0.49502">
        <ele>190</ele>
        <time>2014-06-23T07:19:22Z</time>
      </trkpt>
      <trkpt lat="43.982" lon="0.49501">
        <ele>190</ele>
        <time>2014-06-23T07:19:23Z</time>
      </trkpt>
      <trkpt lat="43.98198" lon="0.49499">
        <ele>192</ele>
        <time>2014-06-23T07:19:25Z</time>
      </trkpt>
      <trkpt lat="43.98196" lon="0.49495">
        <ele>192</ele>
        <time>2014-06-23T07:19:29Z</time>
      </trkpt>
      <trkpt lat="43.98193" lon="0.49488">
        <ele>192</ele>
        <time>2014-06-23T07:19:34Z</time>
      </trkpt>
      <trkpt lat="43.98192" lon="0.49486">
        <ele>192</ele>
        <time>2014-06-23T07:19:36Z</time>
      </trkpt>
      <trkpt lat="43.98192" lon="0.49485">
        <ele>192</ele>
        <time>2014-06-23T07:19:37Z</time>
      </trkpt>
      <trkpt lat="43.98189" lon="0.49477">
        <ele>192</ele>
        <time>2014-06-23T07:19:43Z</time>
      </trkpt>
      <trkpt lat="43.98188" lon="0.49474">
        <ele>192</ele>
        <time>2014-06-23T07:19:45Z</time>
      </trkpt>
      <trkpt lat="43.98187" lon="0.49469">
        <ele>192</ele>
        <time>2014-06-23T07:19:49Z</time>
      </trkpt>
      <trkpt lat="43.98187" lon="0.49466">
        <ele>192</ele>
        <time>2014-06-23T07:19:51Z</time>
      </trkpt>
      <trkpt lat="43.98185" lon="0.49459">
        <ele>192</ele>
        <time>2014-06-23T07:19:56Z</time>
      </trkpt>
      <trkpt lat="43.98184" lon="0.49456">
        <ele>192</ele>
        <time>2014-06-23T07:19:58Z</time>
      </trkpt>
      <trkpt lat="43.98183" lon="0.49451">
        <ele>192</ele>
        <time>2014-06-23T07:20:01Z</time>
      </trkpt>
      <trkpt lat="43.98182" lon="0.49449">
        <ele>192</ele>
        <time>2014-06-23T07:20:03Z</time>
      </trkpt>
      <trkpt lat="43.98177" lon="0.49443">
        <ele>192</ele>
        <time>2014-06-23T07:20:19Z</time>
      </trkpt>
      <trkpt lat="43.98175" lon="0.49437">
        <ele>192</ele>
        <time>2014-06-23T07:20:25Z</time>
      </trkpt>
      <trkpt lat="43.98171" lon="0.49423">
        <ele>193</ele>
        <time>2014-06-23T07:20:34Z</time>
      </trkpt>
      <trkpt lat="43.98171" lon="0.49414">
        <ele>193</ele>
        <time>2014-06-23T07:20:41Z</time>
      </trkpt>
      <trkpt lat="43.98172" lon="0.49409">
        <ele>192</ele>
        <time>2014-06-23T07:20:46Z</time>
      </trkpt>
      <trkpt lat="43.98173" lon="0.49405">
        <ele>192</ele>
        <time>2014-06-23T07:20:49Z</time>
      </trkpt>
      <trkpt lat="43.98174" lon="0.49403">
        <ele>192</ele>
        <time>2014-06-23T07:20:51Z</time>
      </trkpt>
      <trkpt lat="43.98176" lon="0.49398">
        <ele>192</ele>
        <time>2014-06-23T07:20:55Z</time>
      </trkpt>
      <trkpt lat="43.98175" lon="0.49387">
        <ele>192</ele>
        <time>2014-06-23T07:21:02Z</time>
      </trkpt>
      <trkpt lat="43.98175" lon="0.4938">
        <ele>192</ele>
        <time>2014-06-23T07:21:07Z</time>
      </trkpt>
      <trkpt lat="43.98173" lon="0.49365">
        <ele>192</ele>
        <time>2014-06-23T07:21:17Z</time>
      </trkpt>
      <trkpt lat="43.98174" lon="0.4936">
        <ele>192</ele>
        <time>2014-06-23T07:21:20Z</time>
      </trkpt>
      <trkpt lat="43.98173" lon="0.49355">
        <ele>192</ele>
        <time>2014-06-23T07:21:24Z</time>
      </trkpt>
      <trkpt lat="43.9817" lon="0.49337">
        <ele>192</ele>
        <time>2014-06-23T07:21:36Z</time>
      </trkpt>
      <trkpt lat="43.98167" lon="0.49325">
        <ele>192</ele>
        <time>2014-06-23T07:21:44Z</time>
      </trkpt>
      <trkpt lat="43.98168" lon="0.49304">
        <ele>192</ele>
        <time>2014-06-23T07:21:58Z</time>
      </trkpt>
      <trkpt lat="43.98168" lon="0.49279">
        <ele>193</ele>
        <time>2014-06-23T07:22:17Z</time>
      </trkpt>
      <trkpt lat="43.98169" lon="0.49263">
        <ele>194</ele>
        <time>2014-06-23T07:22:28Z</time>
      </trkpt>
      <trkpt lat="43.98169" lon="0.49252">
        <ele>196</ele>
        <time>2014-06-23T07:22:36Z</time>
      </trkpt>
      <trkpt lat="43.9817" lon="0.49241">
        <ele>196</ele>
        <time>2014-06-23T07:22:44Z</time>
      </trkpt>
      <trkpt lat="43.98171" lon="0.49224">
        <ele>196</ele>
        <time>2014-06-23T07:22:58Z</time>
      </trkpt>
      <trkpt lat="43.98173" lon="0.49214">
        <ele>196</ele>
        <time>2014-06-23T07:23:06Z</time>
      </trkpt>
      <trkpt lat="43.98171" lon="0.49202">
        <ele>197</ele>
        <time>2014-06-23T07:23:15Z</time>
      </trkpt>
      <trkpt lat="43.98169" lon="0.49183">
        <ele>198</ele>
        <time>2014-06-23T07:23:29Z</time>
      </trkpt>
      <trkpt lat="43.98169" lon="0.49177">
        <ele>198</ele>
        <time>2014-06-23T07:23:33Z</time>
      </trkpt>
      <trkpt lat="43.98171" lon="0.49154">
        <ele>199</ele>
        <time>2014-06-23T07:23:50Z</time>
      </trkpt>
      <trkpt lat="43.98173" lon="0.49145">
        <ele>199</ele>
        <time>2014-06-23T07:23:57Z</time>
      </trkpt>
      <trkpt lat="43.98175" lon="0.49134">
        <ele>199</ele>
        <time>2014-06-23T07:24:05Z</time>
      </trkpt>
      <trkpt lat="43.9817" lon="0.49117">
        <ele>199</ele>
        <time>2014-06-23T07:24:18Z</time>
      </trkpt>
      <trkpt lat="43.98171" lon="0.49113">
        <ele>200</ele>
        <time>2014-06-23T07:24:21Z</time>
      </trkpt>
      <trkpt lat="43.98173" lon="0.49099">
        <ele>200</ele>
        <time>2014-06-23T07:24:31Z</time>
      </trkpt>
      <trkpt lat="43.98172" lon="0.49084">
        <ele>201</ele>
        <time>2014-06-23T07:24:42Z</time>
      </trkpt>
      <trkpt lat="43.98176" lon="0.49064">
        <ele>201</ele>
        <time>2014-06-23T07:24:57Z</time>
      </trkpt>
      <trkpt lat="43.98177" lon="0.4906">
        <ele>201</ele>
        <time>2014-06-23T07:25:00Z</time>
      </trkpt>
      <trkpt lat="43.98179" lon="0.49038">
        <ele>202</ele>
        <time>2014-06-23T07:25:16Z</time>
      </trkpt>
      <trkpt lat="43.98179" lon="0.49026">
        <ele>202</ele>
        <time>2014-06-23T07:25:25Z</time>
      </trkpt>
      <trkpt lat="43.9818" lon="0.49003">
        <ele>203</ele>
        <time>2014-06-23T07:25:41Z</time>
      </trkpt>
      <trkpt lat="43.98182" lon="0.4898">
        <ele>204</ele>
        <time>2014-06-23T07:25:57Z</time>
      </trkpt>
      <trkpt lat="43.98182" lon="0.48965">
        <ele>204</ele>
        <time>2014-06-23T07:26:08Z</time>
      </trkpt>
      <trkpt lat="43.98183" lon="0.48956">
        <ele>204</ele>
        <time>2014-06-23T07:26:14Z</time>
      </trkpt>
      <trkpt lat="43.98183" lon="0.48945">
        <ele>204</ele>
        <time>2014-06-23T07:26:22Z</time>
      </trkpt>
      <trkpt lat="43.98186" lon="0.48929">
        <ele>205</ele>
        <time>2014-06-23T07:26:34Z</time>
      </trkpt>
      <trkpt lat="43.98186" lon="0.48926">
        <ele>205</ele>
        <time>2014-06-23T07:26:36Z</time>
      </trkpt>
      <trkpt lat="43.98186" lon="0.48919">
        <ele>205</ele>
        <time>2014-06-23T07:26:41Z</time>
      </trkpt>
      <trkpt lat="43.98189" lon="0.48902">
        <ele>205</ele>
        <time>2014-06-23T07:26:55Z</time>
      </trkpt>
      <trkpt lat="43.98195" lon="0.48878">
        <ele>205</ele>
        <time>2014-06-23T07:27:12Z</time>
      </trkpt>
      <trkpt lat="43.98198" lon="0.48864">
        <ele>205</ele>
        <time>2014-06-23T07:27:22Z</time>
      </trkpt>
      <trkpt lat="43.98199" lon="0.48861">
        <ele>205</ele>
        <time>2014-06-23T07:27:24Z</time>
      </trkpt>
      <trkpt lat="43.98201" lon="0.48845">
        <ele>205</ele>
        <time>2014-06-23T07:27:35Z</time>
      </trkpt>
      <trkpt lat="43.98202" lon="0.4884">
        <ele>205</ele>
        <time>2014-06-23T07:27:38Z</time>
      </trkpt>
      <trkpt lat="43.98206" lon="0.48816">
        <ele>206</ele>
        <time>2014-06-23T07:27:55Z</time>
      </trkpt>
      <trkpt lat="43.98206" lon="0.48799">
        <ele>206</ele>
        <time>2014-06-23T07:28:08Z</time>
      </trkpt>
      <trkpt lat="43.98208" lon="0.48781">
        <ele>206</ele>
        <time>2014-06-23T07:28:21Z</time>
      </trkpt>
      <trkpt lat="43.98208" lon="0.4878">
        <ele>206</ele>
        <time>2014-06-23T07:28:22Z</time>
      </trkpt>
      <trkpt lat="43.98207" lon="0.48759">
        <ele>206</ele>
        <time>2014-06-23T07:28:37Z</time>
      </trkpt>
      <trkpt lat="43.98207" lon="0.48752">
        <ele>207</ele>
        <time>2014-06-23T07:28:42Z</time>
      </trkpt>
      <trkpt lat="43.98207" lon="0.48749">
        <ele>208</ele>
        <time>2014-06-23T07:28:44Z</time>
      </trkpt>
      <trkpt lat="43.98207" lon="0.48738">
        <ele>208</ele>
        <time>2014-06-23T07:28:52Z</time>
      </trkpt>
      <trkpt lat="43.98202" lon="0.48715">
        <ele>208</ele>
        <time>2014-06-23T07:29:09Z</time>
      </trkpt>
      <trkpt lat="43.98205" lon="0.48696">
        <ele>208</ele>
        <time>2014-06-23T07:29:22Z</time>
      </trkpt>
      <trkpt lat="43.98204" lon="0.48688">
        <ele>208</ele>
        <time>2014-06-23T07:29:38Z</time>
      </trkpt>
      <trkpt lat="43.98202" lon="0.48678">
        <ele>208</ele>
        <time>2014-06-23T07:30:30Z</time>
      </trkpt>
      <trkpt lat="43.98199" lon="0.48681">
        <ele>208</ele>
        <time>2014-06-23T07:31:11Z</time>
      </trkpt>
      <trkpt lat="43.982" lon="0.48666">
        <ele>210</ele>
        <time>2014-06-23T07:32:21Z</time>
      </trkpt>
      <trkpt lat="43.98197" lon="0.48643">
        <ele>210</ele>
        <time>2014-06-23T07:32:38Z</time>
      </trkpt>
      <trkpt lat="43.98197" lon="0.48638">
        <ele>210</ele>
        <time>2014-06-23T07:32:41Z</time>
      </trkpt>
      <trkpt lat="43.98197" lon="0.48636">
        <ele>210</ele>
        <time>2014-06-23T07:32:43Z</time>
      </trkpt>
      <trkpt lat="43.98197" lon="0.48613">
        <ele>210</ele>
        <time>2014-06-23T07:32:59Z</time>
      </trkpt>
      <trkpt lat="43.98194" lon="0.48591">
        <ele>211</ele>
        <time>2014-06-23T07:33:15Z</time>
      </trkpt>
      <trkpt lat="43.98194" lon="0.48566">
        <ele>212</ele>
        <time>2014-06-23T07:33:33Z</time>
      </trkpt>
      <trkpt lat="43.98194" lon="0.48545">
        <ele>212</ele>
        <time>2014-06-23T07:33:49Z</time>
      </trkpt>
      <trkpt lat="43.98192" lon="0.48522">
        <ele>213</ele>
        <time>2014-06-23T07:34:06Z</time>
      </trkpt>
      <trkpt lat="43.98185" lon="0.48506">
        <ele>213</ele>
        <time>2014-06-23T07:34:22Z</time>
      </trkpt>
      <trkpt lat="43.98188" lon="0.48497">
        <ele>214</ele>
        <time>2014-06-23T07:34:32Z</time>
      </trkpt>
      <trkpt lat="43.98196" lon="0.48479">
        <ele>214</ele>
        <time>2014-06-23T07:34:47Z</time>
      </trkpt>
      <trkpt lat="43.98206" lon="0.4846">
        <ele>214</ele>
        <time>2014-06-23T07:35:02Z</time>
      </trkpt>
      <trkpt lat="43.98211" lon="0.48453">
        <ele>214</ele>
        <time>2014-06-23T07:35:08Z</time>
      </trkpt>
      <trkpt lat="43.98213" lon="0.4845">
        <ele>214</ele>
        <time>2014-06-23T07:35:13Z</time>
      </trkpt>
      <trkpt lat="43.98222" lon="0.48434">
        <ele>214</ele>
        <time>2014-06-23T07:35:26Z</time>
      </trkpt>
      <trkpt lat="43.98235" lon="0.48414">
        <ele>213</ele>
        <time>2014-06-23T07:35:41Z</time>
      </trkpt>
      <trkpt lat="43.98241" lon="0.48393">
        <ele>213</ele>
        <time>2014-06-23T07:35:56Z</time>
      </trkpt>
      <trkpt lat="43.98248" lon="0.48372">
        <ele>212</ele>
        <time>2014-06-23T07:36:12Z</time>
      </trkpt>
      <trkpt lat="43.98254" lon="0.48352">
        <ele>213</ele>
        <time>2014-06-23T07:36:27Z</time>
      </trkpt>
      <trkpt lat="43.98262" lon="0.48325">
        <ele>212</ele>
        <time>2014-06-23T07:36:46Z</time>
      </trkpt>
      <trkpt lat="43.98263" lon="0.48319">
        <ele>212</ele>
        <time>2014-06-23T07:36:50Z</time>
      </trkpt>
      <trkpt lat="43.98271" lon="0.48299">
        <ele>212</ele>
        <time>2014-06-23T07:37:06Z</time>
      </trkpt>
      <trkpt lat="43.98276" lon="0.48288">
        <ele>212</ele>
        <time>2014-06-23T07:37:14Z</time>
      </trkpt>
      <trkpt lat="43.98284" lon="0.48268">
        <ele>212</ele>
        <time>2014-06-23T07:37:30Z</time>
      </trkpt>
      <trkpt lat="43.98277" lon="0.48247">
        <ele>210</ele>
        <time>2014-06-23T07:37:46Z</time>
      </trkpt>
      <trkpt lat="43.98278" lon="0.48242">
        <ele>210</ele>
        <time>2014-06-23T07:37:49Z</time>
      </trkpt>
      <trkpt lat="43.98283" lon="0.48226">
        <ele>209</ele>
        <time>2014-06-23T07:38:03Z</time>
      </trkpt>
      <trkpt lat="43.98289" lon="0.4821">
        <ele>209</ele>
        <time>2014-06-23T07:38:17Z</time>
      </trkpt>
      <trkpt lat="43.98291" lon="0.4819">
        <ele>208</ele>
        <time>2014-06-23T07:38:29Z</time>
      </trkpt>
      <trkpt lat="43.9829" lon="0.48185">
        <ele>208</ele>
        <time>2014-06-23T07:38:32Z</time>
      </trkpt>
      <trkpt lat="43.98291" lon="0.48182">
        <ele>208</ele>
        <time>2014-06-23T07:38:34Z</time>
      </trkpt>
      <trkpt lat="43.98294" lon="0.48153">
        <ele>201</ele>
        <time>2014-06-23T07:38:52Z</time>
      </trkpt>
      <trkpt lat="43.983" lon="0.48128">
        <ele>200</ele>
        <time>2014-06-23T07:39:10Z</time>
      </trkpt>
      <trkpt lat="43.98305" lon="0.48101">
        <ele>198</ele>
        <time>2014-06-23T07:39:29Z</time>
      </trkpt>
      <trkpt lat="43.9831" lon="0.48076">
        <ele>193</ele>
        <time>2014-06-23T07:39:47Z</time>
      </trkpt>
      <trkpt lat="43.9831" lon="0.48073">
        <ele>193</ele>
        <time>2014-06-23T07:39:49Z</time>
      </trkpt>
      <trkpt lat="43.98314" lon="0.48048">
        <ele>191</ele>
        <time>2014-06-23T07:40:07Z</time>
      </trkpt>
      <trkpt lat="43.9832" lon="0.48026">
        <ele>190</ele>
        <time>2014-06-23T07:40:23Z</time>
      </trkpt>
      <trkpt lat="43.98321" lon="0.48008">
        <ele>189</ele>
        <time>2014-06-23T07:40:36Z</time>
      </trkpt>
      <trkpt lat="43.98324" lon="0.47978">
        <ele>186</ele>
        <time>2014-06-23T07:40:58Z</time>
      </trkpt>
      <trkpt lat="43.98326" lon="0.47962">
        <ele>186</ele>
        <time>2014-06-23T07:41:11Z</time>
      </trkpt>
      <trkpt lat="43.98332" lon="0.47937">
        <ele>184</ele>
        <time>2014-06-23T07:41:30Z</time>
      </trkpt>
      <trkpt lat="43.98327" lon="0.4792">
        <ele>183</ele>
        <time>2014-06-23T07:41:48Z</time>
      </trkpt>
      <trkpt lat="43.98331" lon="0.47909">
        <ele>182</ele>
        <time>2014-06-23T07:42:11Z</time>
      </trkpt>
      <trkpt lat="43.98337" lon="0.47885">
        <ele>181</ele>
        <time>2014-06-23T07:42:28Z</time>
      </trkpt>
      <trkpt lat="43.98338" lon="0.47883">
        <ele>181</ele>
        <time>2014-06-23T07:42:29Z</time>
      </trkpt>
      <trkpt lat="43.98339" lon="0.47877">
        <ele>181</ele>
        <time>2014-06-23T07:42:33Z</time>
      </trkpt>
      <trkpt lat="43.98344" lon="0.47849">
        <ele>180</ele>
        <time>2014-06-23T07:42:51Z</time>
      </trkpt>
      <trkpt lat="43.98346" lon="0.4784">
        <ele>180</ele>
        <time>2014-06-23T07:42:57Z</time>
      </trkpt>
      <trkpt lat="43.98346" lon="0.47834">
        <ele>180</ele>
        <time>2014-06-23T07:43:01Z</time>
      </trkpt>
      <trkpt lat="43.98348" lon="0.47823">
        <ele>179</ele>
        <time>2014-06-23T07:43:09Z</time>
      </trkpt>
      <trkpt lat="43.98351" lon="0.47805">
        <ele>178</ele>
        <time>2014-06-23T07:43:20Z</time>
      </trkpt>
      <trkpt lat="43.98357" lon="0.47774">
        <ele>178</ele>
        <time>2014-06-23T07:43:42Z</time>
      </trkpt>
      <trkpt lat="43.98355" lon="0.4777">
        <ele>178</ele>
        <time>2014-06-23T07:43:50Z</time>
      </trkpt>
      <trkpt lat="43.98372" lon="0.47768">
        <ele>178</ele>
        <time>2014-06-23T07:44:08Z</time>
      </trkpt>
      <trkpt lat="43.9838" lon="0.47768">
        <ele>178</ele>
        <time>2014-06-23T07:44:16Z</time>
      </trkpt>
      <trkpt lat="43.98389" lon="0.47768">
        <ele>178</ele>
        <time>2014-06-23T07:44:25Z</time>
      </trkpt>
      <trkpt lat="43.9841" lon="0.47767">
        <ele>177</ele>
        <time>2014-06-23T07:44:45Z</time>
      </trkpt>
      <trkpt lat="43.98421" lon="0.47767">
        <ele>177</ele>
        <time>2014-06-23T07:44:55Z</time>
      </trkpt>
      <trkpt lat="43.98432" lon="0.47767">
        <ele>178</ele>
        <time>2014-06-23T07:45:05Z</time>
      </trkpt>
      <trkpt lat="43.98445" lon="0.47766">
        <ele>178</ele>
        <time>2014-06-23T07:45:17Z</time>
      </trkpt>
      <trkpt lat="43.98447" lon="0.47766">
        <ele>178</ele>
        <time>2014-06-23T07:45:19Z</time>
      </trkpt>
      <trkpt lat="43.98469" lon="0.47765">
        <ele>178</ele>
        <time>2014-06-23T07:45:39Z</time>
      </trkpt>
      <trkpt lat="43.98471" lon="0.47765">
        <ele>178</ele>
        <time>2014-06-23T07:45:41Z</time>
      </trkpt>
      <trkpt lat="43.98479" lon="0.47764">
        <ele>178</ele>
        <time>2014-06-23T07:45:48Z</time>
      </trkpt>
      <trkpt lat="43.98501" lon="0.47761">
        <ele>179</ele>
        <time>2014-06-23T07:46:08Z</time>
      </trkpt>
      <trkpt lat="43.98508" lon="0.4776">
        <ele>179</ele>
        <time>2014-06-23T07:46:15Z</time>
      </trkpt>
      <trkpt lat="43.98517" lon="0.4776">
        <ele>180</ele>
        <time>2014-06-23T07:46:23Z</time>
      </trkpt>
      <trkpt lat="43.98537" lon="0.47755">
        <ele>181</ele>
        <time>2014-06-23T07:46:42Z</time>
      </trkpt>
      <trkpt lat="43.98543" lon="0.47747">
        <ele>180</ele>
        <time>2014-06-23T07:47:01Z</time>
      </trkpt>
      <trkpt lat="43.98542" lon="0.47746">
        <ele>180</ele>
        <time>2014-06-23T07:48:27Z</time>
      </trkpt>
      <trkpt lat="43.98542" lon="0.47745">
        <ele>180</ele>
        <time>2014-06-23T07:48:29Z</time>
      </trkpt>
      <trkpt lat="43.98544" lon="0.47739">
        <ele>180</ele>
        <time>2014-06-23T07:48:41Z</time>
      </trkpt>
      <trkpt lat="43.98545" lon="0.47731">
        <ele>180</ele>
        <time>2014-06-23T07:48:47Z</time>
      </trkpt>
      <trkpt lat="43.98551" lon="0.47704">
        <ele>179</ele>
        <time>2014-06-23T07:49:07Z</time>
      </trkpt>
      <trkpt lat="43.98557" lon="0.47673">
        <ele>179</ele>
        <time>2014-06-23T07:49:29Z</time>
      </trkpt>
      <trkpt lat="43.98562" lon="0.47646">
        <ele>178</ele>
        <time>2014-06-23T07:49:47Z</time>
      </trkpt>
      <trkpt lat="43.98567" lon="0.47619">
        <ele>178</ele>
        <time>2014-06-23T07:50:06Z</time>
      </trkpt>
      <trkpt lat="43.98571" lon="0.47593">
        <ele>178</ele>
        <time>2014-06-23T07:50:25Z</time>
      </trkpt>
      <trkpt lat="43.98575" lon="0.47569">
        <ele>177</ele>
        <time>2014-06-23T07:50:42Z</time>
      </trkpt>
      <trkpt lat="43.98577" lon="0.47544">
        <ele>177</ele>
        <time>2014-06-23T07:50:59Z</time>
      </trkpt>
      <trkpt lat="43.98575" lon="0.4753">
        <ele>176</ele>
        <time>2014-06-23T07:51:09Z</time>
      </trkpt>
      <trkpt lat="43.98566" lon="0.47515">
        <ele>176</ele>
        <time>2014-06-23T07:51:27Z</time>
      </trkpt>
      <trkpt lat="43.98565" lon="0.47514">
        <ele>176</ele>
        <time>2014-06-23T07:51:28Z</time>
      </trkpt>
      <trkpt lat="43.98554" lon="0.47494">
        <ele>175</ele>
        <time>2014-06-23T07:51:45Z</time>
      </trkpt>
      <trkpt lat="43.98545" lon="0.47478">
        <ele>175</ele>
        <time>2014-06-23T07:52:02Z</time>
      </trkpt>
      <trkpt lat="43.98538" lon="0.47468">
        <ele>175</ele>
        <time>2014-06-23T07:52:17Z</time>
      </trkpt>
      <trkpt lat="43.98538" lon="0.47459">
        <ele>174</ele>
        <time>2014-06-23T07:52:32Z</time>
      </trkpt>
      <trkpt lat="43.98536" lon="0.47448">
        <ele>174</ele>
        <time>2014-06-23T07:52:40Z</time>
      </trkpt>
      <trkpt lat="43.98538" lon="0.4742">
        <ele>174</ele>
        <time>2014-06-23T07:52:59Z</time>
      </trkpt>
      <trkpt lat="43.98536" lon="0.47396">
        <ele>172</ele>
        <time>2014-06-23T07:53:16Z</time>
      </trkpt>
      <trkpt lat="43.98538" lon="0.47391">
        <ele>172</ele>
        <time>2014-06-23T07:53:23Z</time>
      </trkpt>
      <trkpt lat="43.98538" lon="0.47374">
        <ele>172</ele>
        <time>2014-06-23T07:53:35Z</time>
      </trkpt>
      <trkpt lat="43.98531" lon="0.47348">
        <ele>171</ele>
        <time>2014-06-23T07:53:54Z</time>
      </trkpt>
      <trkpt lat="43.98525" lon="0.47335">
        <ele>170</ele>
        <time>2014-06-23T07:54:05Z</time>
      </trkpt>
      <trkpt lat="43.98518" lon="0.47324">
        <ele>168</ele>
        <time>2014-06-23T07:54:14Z</time>
      </trkpt>
      <trkpt lat="43.98513" lon="0.47306">
        <ele>169</ele>
        <time>2014-06-23T07:54:28Z</time>
      </trkpt>
      <trkpt lat="43.98506" lon="0.47283">
        <ele>168</ele>
        <time>2014-06-23T07:54:44Z</time>
      </trkpt>
      <trkpt lat="43.98506" lon="0.47267">
        <ele>167</ele>
        <time>2014-06-23T07:54:56Z</time>
      </trkpt>
      <trkpt lat="43.98502" lon="0.47252">
        <ele>165</ele>
        <time>2014-06-23T07:55:09Z</time>
      </trkpt>
      <trkpt lat="43.98494" lon="0.47233">
        <ele>164</ele>
        <time>2014-06-23T07:55:24Z</time>
      </trkpt>
      <trkpt lat="43.98487" lon="0.47218">
        <ele>163</ele>
        <time>2014-06-23T07:55:37Z</time>
      </trkpt>
      <trkpt lat="43.98482" lon="0.47199">
        <ele>163</ele>
        <time>2014-06-23T07:55:50Z</time>
      </trkpt>
      <trkpt lat="43.98479" lon="0.47195">
        <ele>163</ele>
        <time>2014-06-23T07:56:09Z</time>
      </trkpt>
      <trkpt lat="43.98475" lon="0.4719">
        <ele>163</ele>
        <time>2014-06-23T07:56:39Z</time>
      </trkpt>
      <trkpt lat="43.98473" lon="0.47177">
        <ele>163</ele>
        <time>2014-06-23T07:56:54Z</time>
      </trkpt>
      <trkpt lat="43.98468" lon="0.47177">
        <ele>163</ele>
        <time>2014-06-23T07:57:22Z</time>
      </trkpt>
      <trkpt lat="43.98468" lon="0.47171">
        <ele>163</ele>
        <time>2014-06-23T07:57:35Z</time>
      </trkpt>
      <trkpt lat="43.98464" lon="0.47159">
        <ele>163</ele>
        <time>2014-06-23T07:57:47Z</time>
      </trkpt>
      <trkpt lat="43.98464" lon="0.47156">
        <ele>163</ele>
        <time>2014-06-23T07:57:49Z</time>
      </trkpt>
      <trkpt lat="43.98456" lon="0.47142">
        <ele>162</ele>
        <time>2014-06-23T07:58:02Z</time>
      </trkpt>
      <trkpt lat="43.98452" lon="0.4713">
        <ele>162</ele>
        <time>2014-06-23T07:58:15Z</time>
      </trkpt>
      <trkpt lat="43.98446" lon="0.47113">
        <ele>162</ele>
        <time>2014-06-23T07:58:29Z</time>
      </trkpt>
      <trkpt lat="43.98438" lon="0.47093">
        <ele>160</ele>
        <time>2014-06-23T07:58:43Z</time>
      </trkpt>
      <trkpt lat="43.98432" lon="0.47075">
        <ele>160</ele>
        <time>2014-06-23T07:58:57Z</time>
      </trkpt>
      <trkpt lat="43.98428" lon="0.47057">
        <ele>162</ele>
        <time>2014-06-23T07:59:11Z</time>
      </trkpt>
      <trkpt lat="43.9842" lon="0.47041">
        <ele>162</ele>
        <time>2014-06-23T07:59:26Z</time>
      </trkpt>
      <trkpt lat="43.98407" lon="0.47027">
        <ele>155</ele>
        <time>2014-06-23T07:59:41Z</time>
      </trkpt>
      <trkpt lat="43.98395" lon="0.47015">
        <ele>155</ele>
        <time>2014-06-23T07:59:54Z</time>
      </trkpt>
      <trkpt lat="43.98385" lon="0.47002">
        <ele>154</ele>
        <time>2014-06-23T08:00:08Z</time>
      </trkpt>
      <trkpt lat="43.98376" lon="0.46992">
        <ele>155</ele>
        <time>2014-06-23T08:00:19Z</time>
      </trkpt>
      <trkpt lat="43.98364" lon="0.46976">
        <ele>155</ele>
        <time>2014-06-23T08:00:33Z</time>
      </trkpt>
      <trkpt lat="43.98351" lon="0.46958">
        <ele>154</ele>
        <time>2014-06-23T08:00:48Z</time>
      </trkpt>
      <trkpt lat="43.98345" lon="0.46942">
        <ele>154</ele>
        <time>2014-06-23T08:01:01Z</time>
      </trkpt>
      <trkpt lat="43.9834" lon="0.46931">
        <ele>154</ele>
        <time>2014-06-23T08:01:13Z</time>
      </trkpt>
      <trkpt lat="43.98333" lon="0.46911">
        <ele>153</ele>
        <time>2014-06-23T08:01:28Z</time>
      </trkpt>
      <trkpt lat="43.98328" lon="0.46894">
        <ele>149</ele>
        <time>2014-06-23T08:01:41Z</time>
      </trkpt>
      <trkpt lat="43.9832" lon="0.46876">
        <ele>149</ele>
        <time>2014-06-23T08:01:53Z</time>
      </trkpt>
      <trkpt lat="43.98316" lon="0.46857">
        <ele>149</ele>
        <time>2014-06-23T08:02:08Z</time>
      </trkpt>
      <trkpt lat="43.98311" lon="0.4684">
        <ele>149</ele>
        <time>2014-06-23T08:02:22Z</time>
      </trkpt>
      <trkpt lat="43.98307" lon="0.46827">
        <ele>149</ele>
        <time>2014-06-23T08:02:30Z</time>
      </trkpt>
      <trkpt lat="43.98301" lon="0.46805">
        <ele>147</ele>
        <time>2014-06-23T08:02:43Z</time>
      </trkpt>
      <trkpt lat="43.98296" lon="0.46788">
        <ele>147</ele>
        <time>2014-06-23T08:02:57Z</time>
      </trkpt>
      <trkpt lat="43.98277" lon="0.46777">
        <ele>146</ele>
        <time>2014-06-23T08:03:17Z</time>
      </trkpt>
      <trkpt lat="43.98261" lon="0.46766">
        <ele>144</ele>
        <time>2014-06-23T08:03:36Z</time>
      </trkpt>
      <trkpt lat="43.98244" lon="0.46753">
        <ele>140</ele>
        <time>2014-06-23T08:03:55Z</time>
      </trkpt>
      <trkpt lat="43.98243" lon="0.46751">
        <ele>140</ele>
        <time>2014-06-23T08:03:57Z</time>
      </trkpt>
      <trkpt lat="43.98223" lon="0.46736">
        <ele>138</ele>
        <time>2014-06-23T08:04:19Z</time>
      </trkpt>
      <trkpt lat="43.98203" lon="0.46722">
        <ele>137</ele>
        <time>2014-06-23T08:04:40Z</time>
      </trkpt>
      <trkpt lat="43.98185" lon="0.46707">
        <ele>136</ele>
        <time>2014-06-23T08:05:00Z</time>
      </trkpt>
      <trkpt lat="43.9817" lon="0.46686">
        <ele>135</ele>
        <time>2014-06-23T08:05:21Z</time>
      </trkpt>
      <trkpt lat="43.98159" lon="0.46663">
        <ele>134</ele>
        <time>2014-06-23T08:05:41Z</time>
      </trkpt>
      <trkpt lat="43.98152" lon="0.46644">
        <ele>136</ele>
        <time>2014-06-23T08:05:57Z</time>
      </trkpt>
      <trkpt lat="43.98145" lon="0.46624">
        <ele>137</ele>
        <time>2014-06-23T08:06:11Z</time>
      </trkpt>
      <trkpt lat="43.98134" lon="0.466">
        <ele>137</ele>
        <time>2014-06-23T08:06:30Z</time>
      </trkpt>
      <trkpt lat="43.98122" lon="0.46575">
        <ele>138</ele>
        <time>2014-06-23T08:06:50Z</time>
      </trkpt>
      <trkpt lat="43.98113" lon="0.46555">
        <ele>139</ele>
        <time>2014-06-23T08:07:10Z</time>
      </trkpt>
      <trkpt lat="43.98112" lon="0.46553">
        <ele>139</ele>
        <time>2014-06-23T08:07:12Z</time>
      </trkpt>
      <trkpt lat="43.98104" lon="0.46537">
        <ele>140</ele>
        <time>2014-06-23T08:07:27Z</time>
      </trkpt>
      <trkpt lat="43.98101" lon="0.46522">
        <ele>141</ele>
        <time>2014-06-23T08:07:42Z</time>
      </trkpt>
      <trkpt lat="43.98094" lon="0.46505">
        <ele>143</ele>
        <time>2014-06-23T08:07:57Z</time>
      </trkpt>
      <trkpt lat="43.98088" lon="0.46489">
        <ele>144</ele>
        <time>2014-06-23T08:08:11Z</time>
      </trkpt>
      <trkpt lat="43.98088" lon="0.46485">
        <ele>143</ele>
        <time>2014-06-23T08:08:14Z</time>
      </trkpt>
      <trkpt lat="43.98084" lon="0.46466">
        <ele>142</ele>
        <time>2014-06-23T08:08:28Z</time>
      </trkpt>
      <trkpt lat="43.98086" lon="0.46443">
        <ele>143</ele>
        <time>2014-06-23T08:08:45Z</time>
      </trkpt>
      <trkpt lat="43.98082" lon="0.46417">
        <ele>147</ele>
        <time>2014-06-23T08:09:04Z</time>
      </trkpt>
      <trkpt lat="43.98083" lon="0.46399">
        <ele>151</ele>
        <time>2014-06-23T08:09:18Z</time>
      </trkpt>
      <trkpt lat="43.98083" lon="0.46379">
        <ele>153</ele>
        <time>2014-06-23T08:09:34Z</time>
      </trkpt>
      <trkpt lat="43.98081" lon="0.46361">
        <ele>153</ele>
        <time>2014-06-23T08:09:51Z</time>
      </trkpt>
      <trkpt lat="43.98073" lon="0.46344">
        <ele>152</ele>
        <time>2014-06-23T08:10:08Z</time>
      </trkpt>
      <trkpt lat="43.98062" lon="0.46329">
        <ele>155</ele>
        <time>2014-06-23T08:10:27Z</time>
      </trkpt>
      <trkpt lat="43.98052" lon="0.46316">
        <ele>156</ele>
        <time>2014-06-23T08:10:47Z</time>
      </trkpt>
      <trkpt lat="43.98041" lon="0.46301">
        <ele>158</ele>
        <time>2014-06-23T08:11:05Z</time>
      </trkpt>
      <trkpt lat="43.98031" lon="0.46289">
        <ele>159</ele>
        <time>2014-06-23T08:11:20Z</time>
      </trkpt>
      <trkpt lat="43.98019" lon="0.46272">
        <ele>160</ele>
        <time>2014-06-23T08:11:41Z</time>
      </trkpt>
      <trkpt lat="43.9801" lon="0.46254">
        <ele>162</ele>
        <time>2014-06-23T08:11:58Z</time>
      </trkpt>
      <trkpt lat="43.98007" lon="0.46245">
        <ele>164</ele>
        <time>2014-06-23T08:12:07Z</time>
      </trkpt>
      <trkpt lat="43.98002" lon="0.46228">
        <ele>163</ele>
        <time>2014-06-23T08:12:23Z</time>
      </trkpt>
      <trkpt lat="43.97994" lon="0.46208">
        <ele>165</ele>
        <time>2014-06-23T08:12:40Z</time>
      </trkpt>
      <trkpt lat="43.97984" lon="0.46194">
        <ele>165</ele>
        <time>2014-06-23T08:12:56Z</time>
      </trkpt>
      <trkpt lat="43.97973" lon="0.46208">
        <ele>165</ele>
        <time>2014-06-23T08:13:13Z</time>
      </trkpt>
      <trkpt lat="43.97965" lon="0.46219">
        <ele>165</ele>
        <time>2014-06-23T08:13:27Z</time>
      </trkpt>
      <trkpt lat="43.97956" lon="0.46221">
        <ele>165</ele>
        <time>2014-06-23T08:13:38Z</time>
      </trkpt>
      <trkpt lat="43.97951" lon="0.46222">
        <ele>165</ele>
        <time>2014-06-23T08:13:48Z</time>
      </trkpt>
      <trkpt lat="43.97952" lon="0.4622">
        <ele>165</ele>
        <time>2014-06-23T08:14:04Z</time>
      </trkpt>
      <trkpt lat="43.97952" lon="0.46219">
        <ele>165</ele>
        <time>2014-06-23T08:14:20Z</time>
      </trkpt>
      <trkpt lat="43.97956" lon="0.46224">
        <ele>165</ele>
        <time>2014-06-23T08:15:20Z</time>
      </trkpt>
      <trkpt lat="43.97956" lon="0.46224">
        <ele>165</ele>
        <time>2014-06-23T08:15:22Z</time>
      </trkpt>
      <trkpt lat="43.97956" lon="0.46224">
        <ele>165</ele>
        <time>2014-06-23T08:15:23Z</time>
      </trkpt>
      <trkpt lat="43.97954" lon="0.46224">
        <ele>165</ele>
        <time>2014-06-23T08:15:30Z</time>
      </trkpt>
      <trkpt lat="43.97955" lon="0.46224">
        <ele>165</ele>
        <time>2014-06-23T08:15:31Z</time>
      </trkpt>
      <trkpt lat="43.97956" lon="0.46224">
        <ele>165</ele>
        <time>2014-06-23T08:15:33Z</time>
      </trkpt>
      <trkpt lat="43.97947" lon="0.46223">
        <ele>165</ele>
        <time>2014-06-23T08:15:55Z</time>
      </trkpt>
      <trkpt lat="43.97955" lon="0.46222">
        <ele>165</ele>
        <time>2014-06-23T08:16:20Z</time>
      </trkpt>
      <trkpt lat="43.9796" lon="0.46227">
        <ele>165</ele>
        <time>2014-06-23T08:16:59Z</time>
      </trkpt>
      <trkpt lat="43.97952" lon="0.46225">
        <ele>165</ele>
        <time>2014-06-23T08:17:44Z</time>
      </trkpt>
      <trkpt lat="43.97959" lon="0.46224">
        <ele>165</ele>
        <time>2014-06-23T08:18:35Z</time>
      </trkpt>
      <trkpt lat="43.97957" lon="0.46224">
        <ele>165</ele>
        <time>2014-06-23T08:18:56Z</time>
      </trkpt>
      <trkpt lat="43.97956" lon="0.46225">
        <ele>165</ele>
        <time>2014-06-23T08:19:09Z</time>
      </trkpt>
      <trkpt lat="43.97955" lon="0.46225">
        <ele>165</ele>
        <time>2014-06-23T08:20:00Z</time>
      </trkpt>
      <trkpt lat="43.97954" lon="0.46218">
        <ele>165</ele>
        <time>2014-06-23T08:20:27Z</time>
      </trkpt>
      <trkpt lat="43.97938" lon="0.46203">
        <ele>164</ele>
        <time>2014-06-23T08:20:49Z</time>
      </trkpt>
      <trkpt lat="43.97928" lon="0.46194">
        <ele>164</ele>
        <time>2014-06-23T08:21:03Z</time>
      </trkpt>
      <trkpt lat="43.9791" lon="0.46183">
        <ele>160</ele>
        <time>2014-06-23T08:21:24Z</time>
      </trkpt>
      <trkpt lat="43.97894" lon="0.46177">
        <ele>159</ele>
        <time>2014-06-23T08:21:43Z</time>
      </trkpt>
      <trkpt lat="43.97885" lon="0.46173">
        <ele>158</ele>
        <time>2014-06-23T08:21:51Z</time>
      </trkpt>
      <trkpt lat="43.9787" lon="0.46159">
        <ele>154</ele>
        <time>2014-06-23T08:22:10Z</time>
      </trkpt>
      <trkpt lat="43.97856" lon="0.4614">
        <ele>153</ele>
        <time>2014-06-23T08:22:29Z</time>
      </trkpt>
      <trkpt lat="43.97842" lon="0.46125">
        <ele>152</ele>
        <time>2014-06-23T08:22:47Z</time>
      </trkpt>
      <trkpt lat="43.97824" lon="0.46117">
        <ele>144</ele>
        <time>2014-06-23T08:23:06Z</time>
      </trkpt>
      <trkpt lat="43.97805" lon="0.4611">
        <ele>143</ele>
        <time>2014-06-23T08:23:26Z</time>
      </trkpt>
      <trkpt lat="43.97792" lon="0.46114">
        <ele>142</ele>
        <time>2014-06-23T08:23:43Z</time>
      </trkpt>
      <trkpt lat="43.97792" lon="0.46115">
        <ele>142</ele>
        <time>2014-06-23T08:23:57Z</time>
      </trkpt>
      <trkpt lat="43.97796" lon="0.46116">
        <ele>142</ele>
        <time>2014-06-23T08:24:13Z</time>
      </trkpt>
      <trkpt lat="43.97791" lon="0.46116">
        <ele>142</ele>
        <time>2014-06-23T08:24:25Z</time>
      </trkpt>
      <trkpt lat="43.97773" lon="0.46114">
        <ele>140</ele>
        <time>2014-06-23T08:24:44Z</time>
      </trkpt>
      <trkpt lat="43.97757" lon="0.46112">
        <ele>139</ele>
        <time>2014-06-23T08:25:01Z</time>
      </trkpt>
      <trkpt lat="43.97743" lon="0.4611">
        <ele>132</ele>
        <time>2014-06-23T08:25:16Z</time>
      </trkpt>
      <trkpt lat="43.97722" lon="0.46099">
        <ele>131</ele>
        <time>2014-06-23T08:25:39Z</time>
      </trkpt>
      <trkpt lat="43.97715" lon="0.46095">
        <ele>130</ele>
        <time>2014-06-23T08:25:47Z</time>
      </trkpt>
      <trkpt lat="43.977" lon="0.46084">
        <ele>129</ele>
        <time>2014-06-23T08:26:05Z</time>
      </trkpt>
      <trkpt lat="43.97686" lon="0.46073">
        <ele>125</ele>
        <time>2014-06-23T08:26:22Z</time>
      </trkpt>
      <trkpt lat="43.97671" lon="0.46064">
        <ele>124</ele>
        <time>2014-06-23T08:26:38Z</time>
      </trkpt>
      <trkpt lat="43.97654" lon="0.46052">
        <ele>119</ele>
        <time>2014-06-23T08:26:58Z</time>
      </trkpt>
      <trkpt lat="43.97638" lon="0.46041">
        <ele>118</ele>
        <time>2014-06-23T08:27:16Z</time>
      </trkpt>
      <trkpt lat="43.97618" lon="0.46031">
        <ele>117</ele>
        <time>2014-06-23T08:27:35Z</time>
      </trkpt>
      <trkpt lat="43.97596" lon="0.46018">
        <ele>116</ele>
        <time>2014-06-23T08:27:56Z</time>
      </trkpt>
      <trkpt lat="43.97581" lon="0.46007">
        <ele>114</ele>
        <time>2014-06-23T08:28:14Z</time>
      </trkpt>
      <trkpt lat="43.9758" lon="0.46006">
        <ele>114</ele>
        <time>2014-06-23T08:28:15Z</time>
      </trkpt>
      <trkpt lat="43.97575" lon="0.46003">
        <ele>114</ele>
        <time>2014-06-23T08:28:21Z</time>
      </trkpt>
      <trkpt lat="43.97558" lon="0.45994">
        <ele>114</ele>
        <time>2014-06-23T08:28:43Z</time>
      </trkpt>
      <trkpt lat="43.97549" lon="0.45977">
        <ele>115</ele>
        <time>2014-06-23T08:29:00Z</time>
      </trkpt>
      <trkpt lat="43.97537" lon="0.45967">
        <ele>115</ele>
        <time>2014-06-23T08:29:15Z</time>
      </trkpt>
      <trkpt lat="43.97521" lon="0.45964">
        <ele>115</ele>
        <time>2014-06-23T08:29:32Z</time>
      </trkpt>
      <trkpt lat="43.97501" lon="0.45967">
        <ele>116</ele>
        <time>2014-06-23T08:29:48Z</time>
      </trkpt>
      <trkpt lat="43.97483" lon="0.45971">
        <ele>119</ele>
        <time>2014-06-23T08:30:07Z</time>
      </trkpt>
      <trkpt lat="43.97475" lon="0.45974">
        <ele>119</ele>
        <time>2014-06-23T08:30:15Z</time>
      </trkpt>
      <trkpt lat="43.97465" lon="0.45979">
        <ele>119</ele>
        <time>2014-06-23T08:30:25Z</time>
      </trkpt>
      <trkpt lat="43.9745" lon="0.45985">
        <ele>119</ele>
        <time>2014-06-23T08:30:42Z</time>
      </trkpt>
      <trkpt lat="43.97435" lon="0.45989">
        <ele>120</ele>
        <time>2014-06-23T08:30:58Z</time>
      </trkpt>
      <trkpt lat="43.9742" lon="0.45996">
        <ele>121</ele>
        <time>2014-06-23T08:31:14Z</time>
      </trkpt>
      <trkpt lat="43.97407" lon="0.46005">
        <ele>122</ele>
        <time>2014-06-23T08:31:30Z</time>
      </trkpt>
      <trkpt lat="43.97392" lon="0.46014">
        <ele>124</ele>
        <time>2014-06-23T08:31:48Z</time>
      </trkpt>
      <trkpt lat="43.97377" lon="0.46021">
        <ele>124</ele>
        <time>2014-06-23T08:32:05Z</time>
      </trkpt>
      <trkpt lat="43.97365" lon="0.46029">
        <ele>125</ele>
        <time>2014-06-23T08:32:21Z</time>
      </trkpt>
      <trkpt lat="43.97349" lon="0.46035">
        <ele>126</ele>
        <time>2014-06-23T08:32:41Z</time>
      </trkpt>
      <trkpt lat="43.97334" lon="0.46037">
        <ele>126</ele>
        <time>2014-06-23T08:33:01Z</time>
      </trkpt>
      <trkpt lat="43.97323" lon="0.46036">
        <ele>133</ele>
        <time>2014-06-23T08:33:18Z</time>
      </trkpt>
      <trkpt lat="43.97312" lon="0.46035">
        <ele>134</ele>
        <time>2014-06-23T08:33:35Z</time>
      </trkpt>
      <trkpt lat="43.97299" lon="0.46032">
        <ele>135</ele>
        <time>2014-06-23T08:33:52Z</time>
      </trkpt>
      <trkpt lat="43.97296" lon="0.46032">
        <ele>135</ele>
        <time>2014-06-23T08:33:55Z</time>
      </trkpt>
      <trkpt lat="43.97285" lon="0.46032">
        <ele>136</ele>
        <time>2014-06-23T08:34:10Z</time>
      </trkpt>
      <trkpt lat="43.97277" lon="0.46031">
        <ele>137</ele>
        <time>2014-06-23T08:34:25Z</time>
      </trkpt>
      <trkpt lat="43.97268" lon="0.46026">
        <ele>138</ele>
        <time>2014-06-23T08:34:39Z</time>
      </trkpt>
      <trkpt lat="43.97257" lon="0.46024">
        <ele>139</ele>
        <time>2014-06-23T08:34:54Z</time>
      </trkpt>
      <trkpt lat="43.97248" lon="0.46019">
        <ele>147</ele>
        <time>2014-06-23T08:35:10Z</time>
      </trkpt>
      <trkpt lat="43.97244" lon="0.46016">
        <ele>147</ele>
        <time>2014-06-23T08:35:19Z</time>
      </trkpt>
      <trkpt lat="43.97235" lon="0.46011">
        <ele>147</ele>
        <time>2014-06-23T08:35:35Z</time>
      </trkpt>
      <trkpt lat="43.97225" lon="0.46003">
        <ele>148</ele>
        <time>2014-06-23T08:35:50Z</time>
      </trkpt>
      <trkpt lat="43.97209" lon="0.45996">
        <ele>151</ele>
        <time>2014-06-23T08:36:09Z</time>
      </trkpt>
      <trkpt lat="43.97203" lon="0.45987">
        <ele>152</ele>
        <time>2014-06-23T08:36:25Z</time>
      </trkpt>
      <trkpt lat="43.97195" lon="0.4598">
        <ele>153</ele>
        <time>2014-06-23T08:36:39Z</time>
      </trkpt>
      <trkpt lat="43.97189" lon="0.45972">
        <ele>153</ele>
        <time>2014-06-23T08:36:53Z</time>
      </trkpt>
      <trkpt lat="43.97182" lon="0.45964">
        <ele>153</ele>
        <time>2014-06-23T08:37:08Z</time>
      </trkpt>
      <trkpt lat="43.97174" lon="0.45955">
        <ele>154</ele>
        <time>2014-06-23T08:37:22Z</time>
      </trkpt>
      <trkpt lat="43.97167" lon="0.45944">
        <ele>161</ele>
        <time>2014-06-23T08:37:37Z</time>
      </trkpt>
      <trkpt lat="43.97158" lon="0.45936">
        <ele>161</ele>
        <time>2014-06-23T08:37:50Z</time>
      </trkpt>
      <trkpt lat="43.97148" lon="0.45927">
        <ele>161</ele>
        <time>2014-06-23T08:38:05Z</time>
      </trkpt>
      <trkpt lat="43.97141" lon="0.45914">
        <ele>163</ele>
        <time>2014-06-23T08:38:22Z</time>
      </trkpt>
      <trkpt lat="43.97138" lon="0.45906">
        <ele>163</ele>
        <time>2014-06-23T08:38:30Z</time>
      </trkpt>
      <trkpt lat="43.97131" lon="0.45891">
        <ele>164</ele>
        <time>2014-06-23T08:38:46Z</time>
      </trkpt>
      <trkpt lat="43.97128" lon="0.45876">
        <ele>164</ele>
        <time>2014-06-23T08:39:01Z</time>
      </trkpt>
      <trkpt lat="43.97129" lon="0.45858">
        <ele>164</ele>
        <time>2014-06-23T08:39:17Z</time>
      </trkpt>
      <trkpt lat="43.97127" lon="0.4585">
        <ele>164</ele>
        <time>2014-06-23T08:39:31Z</time>
      </trkpt>
      <trkpt lat="43.97126" lon="0.45846">
        <ele>164</ele>
        <time>2014-06-23T08:39:49Z</time>
      </trkpt>
      <trkpt lat="43.97122" lon="0.45844">
        <ele>164</ele>
        <time>2014-06-23T08:40:21Z</time>
      </trkpt>
      <trkpt lat="43.97124" lon="0.45846">
        <ele>164</ele>
        <time>2014-06-23T08:40:44Z</time>
      </trkpt>
      <trkpt lat="43.97123" lon="0.45843">
        <ele>164</ele>
        <time>2014-06-23T08:41:31Z</time>
      </trkpt>
      <trkpt lat="43.97122" lon="0.45849">
        <ele>164</ele>
        <time>2014-06-23T08:42:15Z</time>
      </trkpt>
      <trkpt lat="43.97119" lon="0.45846">
        <ele>164</ele>
        <time>2014-06-23T08:42:34Z</time>
      </trkpt>
      <trkpt lat="43.97114" lon="0.45855">
        <ele>164</ele>
        <time>2014-06-23T08:42:52Z</time>
      </trkpt>
      <trkpt lat="43.9711" lon="0.45869">
        <ele>164</ele>
        <time>2014-06-23T08:43:10Z</time>
      </trkpt>
      <trkpt lat="43.97112" lon="0.4588">
        <ele>164</ele>
        <time>2014-06-23T08:43:26Z</time>
      </trkpt>
      <trkpt lat="43.97109" lon="0.4588">
        <ele>164</ele>
        <time>2014-06-23T08:43:58Z</time>
      </trkpt>
      <trkpt lat="43.97113" lon="0.4587">
        <ele>164</ele>
        <time>2014-06-23T08:44:14Z</time>
      </trkpt>
      <trkpt lat="43.97117" lon="0.45857">
        <ele>164</ele>
        <time>2014-06-23T08:44:31Z</time>
      </trkpt>
      <trkpt lat="43.97119" lon="0.45858">
        <ele>164</ele>
        <time>2014-06-23T08:45:04Z</time>
      </trkpt>
      <trkpt lat="43.97121" lon="0.45849">
        <ele>164</ele>
        <time>2014-06-23T08:45:53Z</time>
      </trkpt>
      <trkpt lat="43.9712" lon="0.45845">
        <ele>164</ele>
        <time>2014-06-23T08:46:10Z</time>
      </trkpt>
      <trkpt lat="43.97123" lon="0.45835">
        <ele>164</ele>
        <time>2014-06-23T08:46:26Z</time>
      </trkpt>
      <trkpt lat="43.97123" lon="0.45827">
        <ele>164</ele>
        <time>2014-06-23T08:46:44Z</time>
      </trkpt>
      <trkpt lat="43.97123" lon="0.45816">
        <ele>164</ele>
        <time>2014-06-23T08:47:04Z</time>
      </trkpt>
      <trkpt lat="43.97124" lon="0.458">
        <ele>164</ele>
        <time>2014-06-23T08:47:21Z</time>
      </trkpt>
      <trkpt lat="43.97122" lon="0.45781">
        <ele>164</ele>
        <time>2014-06-23T08:47:40Z</time>
      </trkpt>
      <trkpt lat="43.97121" lon="0.4578">
        <ele>164</ele>
        <time>2014-06-23T08:47:41Z</time>
      </trkpt>
      <trkpt lat="43.97117" lon="0.4576">
        <ele>163</ele>
        <time>2014-06-23T08:47:59Z</time>
      </trkpt>
      <trkpt lat="43.97112" lon="0.45744">
        <ele>161</ele>
        <time>2014-06-23T08:48:13Z</time>
      </trkpt>
      <trkpt lat="43.97105" lon="0.45727">
        <ele>160</ele>
        <time>2014-06-23T08:48:29Z</time>
      </trkpt>
      <trkpt lat="43.97101" lon="0.4572">
        <ele>160</ele>
        <time>2014-06-23T08:48:36Z</time>
      </trkpt>
      <trkpt lat="43.97096" lon="0.45713">
        <ele>160</ele>
        <time>2014-06-23T08:48:43Z</time>
      </trkpt>
      <trkpt lat="43.9709" lon="0.45697">
        <ele>159</ele>
        <time>2014-06-23T08:49:01Z</time>
      </trkpt>
      <trkpt lat="43.97083" lon="0.45682">
        <ele>157</ele>
        <time>2014-06-23T08:49:16Z</time>
      </trkpt>
      <trkpt lat="43.97082" lon="0.45666">
        <ele>154</ele>
        <time>2014-06-23T08:49:30Z</time>
      </trkpt>
      <trkpt lat="43.97083" lon="0.45648">
        <ele>151</ele>
        <time>2014-06-23T08:49:46Z</time>
      </trkpt>
      <trkpt lat="43.97084" lon="0.45634">
        <ele>153</ele>
        <time>2014-06-23T08:50:01Z</time>
      </trkpt>
      <trkpt lat="43.97085" lon="0.45622">
        <ele>152</ele>
        <time>2014-06-23T08:50:15Z</time>
      </trkpt>
      <trkpt lat="43.97084" lon="0.45596">
        <ele>148</ele>
        <time>2014-06-23T08:50:35Z</time>
      </trkpt>
      <trkpt lat="43.97085" lon="0.4559">
        <ele>146</ele>
        <time>2014-06-23T08:50:42Z</time>
      </trkpt>
      <trkpt lat="43.9708" lon="0.45572">
        <ele>142</ele>
        <time>2014-06-23T08:50:59Z</time>
      </trkpt>
      <trkpt lat="43.97083" lon="0.45555">
        <ele>140</ele>
        <time>2014-06-23T08:51:14Z</time>
      </trkpt>
      <trkpt lat="43.97076" lon="0.45538">
        <ele>138</ele>
        <time>2014-06-23T08:51:30Z</time>
      </trkpt>
      <trkpt lat="43.97074" lon="0.45518">
        <ele>135</ele>
        <time>2014-06-23T08:51:46Z</time>
      </trkpt>
      <trkpt lat="43.97074" lon="0.455">
        <ele>133</ele>
        <time>2014-06-23T08:52:02Z</time>
      </trkpt>
      <trkpt lat="43.97073" lon="0.45478">
        <ele>127</ele>
        <time>2014-06-23T08:52:19Z</time>
      </trkpt>
      <trkpt lat="43.97068" lon="0.45462">
        <ele>126</ele>
        <time>2014-06-23T08:52:34Z</time>
      </trkpt>
      <trkpt lat="43.97066" lon="0.45445">
        <ele>124</ele>
        <time>2014-06-23T08:52:50Z</time>
      </trkpt>
      <trkpt lat="43.97066" lon="0.45438">
        <ele>123</ele>
        <time>2014-06-23T08:52:55Z</time>
      </trkpt>
      <trkpt lat="43.97065" lon="0.45418">
        <ele>121</ele>
        <time>2014-06-23T08:53:11Z</time>
      </trkpt>
      <trkpt lat="43.97064" lon="0.45401">
        <ele>115</ele>
        <time>2014-06-23T08:53:26Z</time>
      </trkpt>
      <trkpt lat="43.97063" lon="0.45386">
        <ele>115</ele>
        <time>2014-06-23T08:53:41Z</time>
      </trkpt>
      <trkpt lat="43.97058" lon="0.45371">
        <ele>114</ele>
        <time>2014-06-23T08:53:57Z</time>
      </trkpt>
      <trkpt lat="43.97056" lon="0.45356">
        <ele>113</ele>
        <time>2014-06-23T08:54:09Z</time>
      </trkpt>
      <trkpt lat="43.97055" lon="0.45353">
        <ele>113</ele>
        <time>2014-06-23T08:54:11Z</time>
      </trkpt>
      <trkpt lat="43.97054" lon="0.45339">
        <ele>112</ele>
        <time>2014-06-23T08:54:25Z</time>
      </trkpt>
      <trkpt lat="43.97046" lon="0.45333">
        <ele>109</ele>
        <time>2014-06-23T08:54:56Z</time>
      </trkpt>
      <trkpt lat="43.97048" lon="0.45326">
        <ele>109</ele>
        <time>2014-06-23T08:55:14Z</time>
      </trkpt>
      <trkpt lat="43.97048" lon="0.45323">
        <ele>109</ele>
        <time>2014-06-23T08:55:49Z</time>
      </trkpt>
      <trkpt lat="43.97036" lon="0.45312">
        <ele>109</ele>
        <time>2014-06-23T08:56:14Z</time>
      </trkpt>
      <trkpt lat="43.97044" lon="0.4532">
        <ele>109</ele>
        <time>2014-06-23T08:57:04Z</time>
      </trkpt>
      <trkpt lat="43.97038" lon="0.45306">
        <ele>109</ele>
        <time>2014-06-23T08:57:35Z</time>
      </trkpt>
      <trkpt lat="43.97042" lon="0.45295">
        <ele>108</ele>
        <time>2014-06-23T08:57:47Z</time>
      </trkpt>
      <trkpt lat="43.97045" lon="0.45276">
        <ele>108</ele>
        <time>2014-06-23T08:58:05Z</time>
      </trkpt>
      <trkpt lat="43.97047" lon="0.45274">
        <ele>108</ele>
        <time>2014-06-23T08:58:20Z</time>
      </trkpt>
      <trkpt lat="43.97048" lon="0.45274">
        <ele>108</ele>
        <time>2014-06-23T08:58:25Z</time>
      </trkpt>
      <trkpt lat="43.97046" lon="0.45257">
        <ele>108</ele>
        <time>2014-06-23T08:58:40Z</time>
      </trkpt>
      <trkpt lat="43.97046" lon="0.45238">
        <ele>106</ele>
        <time>2014-06-23T08:58:56Z</time>
      </trkpt>
      <trkpt lat="43.97046" lon="0.45231">
        <ele>106</ele>
        <time>2014-06-23T08:59:02Z</time>
      </trkpt>
      <trkpt lat="43.97038" lon="0.45216">
        <ele>106</ele>
        <time>2014-06-23T08:59:13Z</time>
      </trkpt>
      <trkpt lat="43.97035" lon="0.45196">
        <ele>106</ele>
        <time>2014-06-23T08:59:27Z</time>
      </trkpt>
      <trkpt lat="43.9703" lon="0.45185">
        <ele>106</ele>
        <time>2014-06-23T08:59:39Z</time>
      </trkpt>
      <trkpt lat="43.97026" lon="0.4517">
        <ele>106</ele>
        <time>2014-06-23T08:59:51Z</time>
      </trkpt>
      <trkpt lat="43.97015" lon="0.45154">
        <ele>106</ele>
        <time>2014-06-23T09:00:04Z</time>
      </trkpt>
      <trkpt lat="43.9701" lon="0.4514">
        <ele>106</ele>
        <time>2014-06-23T09:00:15Z</time>
      </trkpt>
      <trkpt lat="43.97007" lon="0.45126">
        <ele>106</ele>
        <time>2014-06-23T09:00:26Z</time>
      </trkpt>
      <trkpt lat="43.96999" lon="0.45109">
        <ele>106</ele>
        <time>2014-06-23T09:00:40Z</time>
      </trkpt>
      <trkpt lat="43.96997" lon="0.45093">
        <ele>107</ele>
        <time>2014-06-23T09:00:51Z</time>
      </trkpt>
      <trkpt lat="43.96982" lon="0.45073">
        <ele>109</ele>
        <time>2014-06-23T09:01:06Z</time>
      </trkpt>
      <trkpt lat="43.96971" lon="0.45069">
        <ele>109</ele>
        <time>2014-06-23T09:01:18Z</time>
      </trkpt>
      <trkpt lat="43.96957" lon="0.45063">
        <ele>109</ele>
        <time>2014-06-23T09:01:34Z</time>
      </trkpt>
      <trkpt lat="43.96938" lon="0.45054">
        <ele>109</ele>
        <time>2014-06-23T09:01:50Z</time>
      </trkpt>
      <trkpt lat="43.96922" lon="0.45048">
        <ele>109</ele>
        <time>2014-06-23T09:02:06Z</time>
      </trkpt>
      <trkpt lat="43.96905" lon="0.45044">
        <ele>108</ele>
        <time>2014-06-23T09:02:24Z</time>
      </trkpt>
      <trkpt lat="43.96887" lon="0.45041">
        <ele>108</ele>
        <time>2014-06-23T09:02:42Z</time>
      </trkpt>
      <trkpt lat="43.96868" lon="0.45039">
        <ele>108</ele>
        <time>2014-06-23T09:03:00Z</time>
      </trkpt>
      <trkpt lat="43.96848" lon="0.45038">
        <ele>108</ele>
        <time>2014-06-23T09:03:19Z</time>
      </trkpt>
      <trkpt lat="43.9683" lon="0.45034">
        <ele>110</ele>
        <time>2014-06-23T09:03:38Z</time>
      </trkpt>
      <trkpt lat="43.96817" lon="0.45025">
        <ele>110</ele>
        <time>2014-06-23T09:03:57Z</time>
      </trkpt>
      <trkpt lat="43.9681" lon="0.4502">
        <ele>110</ele>
        <time>2014-06-23T09:04:08Z</time>
      </trkpt>
      <trkpt lat="43.96797" lon="0.4501">
        <ele>111</ele>
        <time>2014-06-23T09:04:26Z</time>
      </trkpt>
      <trkpt lat="43.96791" lon="0.45006">
        <ele>111</ele>
        <time>2014-06-23T09:04:35Z</time>
      </trkpt>
      <trkpt lat="43.96779" lon="0.44999">
        <ele>112</ele>
        <time>2014-06-23T09:04:50Z</time>
      </trkpt>
      <trkpt lat="43.96769" lon="0.44989">
        <ele>113</ele>
        <time>2014-06-23T09:05:07Z</time>
      </trkpt>
      <trkpt lat="43.96761" lon="0.44977">
        <ele>113</ele>
        <time>2014-06-23T09:05:21Z</time>
      </trkpt>
      <trkpt lat="43.96747" lon="0.44957">
        <ele>115</ele>
        <time>2014-06-23T09:05:42Z</time>
      </trkpt>
      <trkpt lat="43.96735" lon="0.44937">
        <ele>114</ele>
        <time>2014-06-23T09:06:02Z</time>
      </trkpt>
      <trkpt lat="43.96722" lon="0.44918">
        <ele>114</ele>
        <time>2014-06-23T09:06:21Z</time>
      </trkpt>
      <trkpt lat="43.9671" lon="0.449">
        <ele>115</ele>
        <time>2014-06-23T09:06:40Z</time>
      </trkpt>
      <trkpt lat="43.96702" lon="0.44887">
        <ele>115</ele>
        <time>2014-06-23T09:06:53Z</time>
      </trkpt>
      <trkpt lat="43.96696" lon="0.44877">
        <ele>115</ele>
        <time>2014-06-23T09:07:07Z</time>
      </trkpt>
      <trkpt lat="43.96685" lon="0.4486">
        <ele>116</ele>
        <time>2014-06-23T09:07:26Z</time>
      </trkpt>
      <trkpt lat="43.96676" lon="0.44843">
        <ele>117</ele>
        <time>2014-06-23T09:07:44Z</time>
      </trkpt>
      <trkpt lat="43.96666" lon="0.44828">
        <ele>119</ele>
        <time>2014-06-23T09:08:02Z</time>
      </trkpt>
      <trkpt lat="43.96655" lon="0.44811">
        <ele>121</ele>
        <time>2014-06-23T09:08:21Z</time>
      </trkpt>
      <trkpt lat="43.96645" lon="0.44797">
        <ele>122</ele>
        <time>2014-06-23T09:08:37Z</time>
      </trkpt>
      <trkpt lat="43.96638" lon="0.44791">
        <ele>123</ele>
        <time>2014-06-23T09:08:53Z</time>
      </trkpt>
      <trkpt lat="43.96627" lon="0.44779">
        <ele>124</ele>
        <time>2014-06-23T09:09:10Z</time>
      </trkpt>
      <trkpt lat="43.96616" lon="0.44769">
        <ele>124</ele>
        <time>2014-06-23T09:09:27Z</time>
      </trkpt>
      <trkpt lat="43.96605" lon="0.44757">
        <ele>126</ele>
        <time>2014-06-23T09:09:46Z</time>
      </trkpt>
      <trkpt lat="43.96594" lon="0.44747">
        <ele>128</ele>
        <time>2014-06-23T09:10:02Z</time>
      </trkpt>
      <trkpt lat="43.96584" lon="0.44736">
        <ele>129</ele>
        <time>2014-06-23T09:10:19Z</time>
      </trkpt>
      <trkpt lat="43.96577" lon="0.4473">
        <ele>133</ele>
        <time>2014-06-23T09:10:35Z</time>
      </trkpt>
      <trkpt lat="43.96576" lon="0.44729">
        <ele>133</ele>
        <time>2014-06-23T09:11:09Z</time>
      </trkpt>
      <trkpt lat="43.96575" lon="0.44728">
        <ele>134</ele>
        <time>2014-06-23T09:12:28Z</time>
      </trkpt>
      <trkpt lat="43.96565" lon="0.44718">
        <ele>135</ele>
        <time>2014-06-23T09:12:44Z</time>
      </trkpt>
      <trkpt lat="43.96557" lon="0.44707">
        <ele>136</ele>
        <time>2014-06-23T09:12:57Z</time>
      </trkpt>
      <trkpt lat="43.96547" lon="0.44693">
        <ele>137</ele>
        <time>2014-06-23T09:13:14Z</time>
      </trkpt>
      <trkpt lat="43.96538" lon="0.44679">
        <ele>138</ele>
        <time>2014-06-23T09:13:32Z</time>
      </trkpt>
      <trkpt lat="43.96532" lon="0.44677">
        <ele>138</ele>
        <time>2014-06-23T09:13:39Z</time>
      </trkpt>
      <trkpt lat="43.96518" lon="0.4467">
        <ele>140</ele>
        <time>2014-06-23T09:13:58Z</time>
      </trkpt>
      <trkpt lat="43.96509" lon="0.44662">
        <ele>142</ele>
        <time>2014-06-23T09:14:14Z</time>
      </trkpt>
      <trkpt lat="43.96497" lon="0.44653">
        <ele>145</ele>
        <time>2014-06-23T09:14:29Z</time>
      </trkpt>
      <trkpt lat="43.96483" lon="0.44645">
        <ele>147</ele>
        <time>2014-06-23T09:14:44Z</time>
      </trkpt>
      <trkpt lat="43.96474" lon="0.44639">
        <ele>148</ele>
        <time>2014-06-23T09:14:53Z</time>
      </trkpt>
      <trkpt lat="43.96461" lon="0.4463">
        <ele>148</ele>
        <time>2014-06-23T09:15:08Z</time>
      </trkpt>
      <trkpt lat="43.96452" lon="0.44625">
        <ele>149</ele>
        <time>2014-06-23T09:15:18Z</time>
      </trkpt>
      <trkpt lat="43.96442" lon="0.44614">
        <ele>150</ele>
        <time>2014-06-23T09:15:34Z</time>
      </trkpt>
      <trkpt lat="43.96439" lon="0.44603">
        <ele>151</ele>
        <time>2014-06-23T09:15:46Z</time>
      </trkpt>
      <trkpt lat="43.96435" lon="0.44608">
        <ele>151</ele>
        <time>2014-06-23T09:15:58Z</time>
      </trkpt>
      <trkpt lat="43.96433" lon="0.44612">
        <ele>150</ele>
        <time>2014-06-23T09:16:37Z</time>
      </trkpt>
      <trkpt lat="43.96432" lon="0.44612">
        <ele>150</ele>
        <time>2014-06-23T09:18:50Z</time>
      </trkpt>
      <trkpt lat="43.96436" lon="0.44602">
        <ele>151</ele>
        <time>2014-06-23T09:19:04Z</time>
      </trkpt>
      <trkpt lat="43.9644" lon="0.44585">
        <ele>151</ele>
        <time>2014-06-23T09:19:22Z</time>
      </trkpt>
      <trkpt lat="43.96438" lon="0.44574">
        <ele>153</ele>
        <time>2014-06-23T09:19:38Z</time>
      </trkpt>
      <trkpt lat="43.96432" lon="0.44565">
        <ele>153</ele>
        <time>2014-06-23T09:19:49Z</time>
      </trkpt>
      <trkpt lat="43.9643" lon="0.44564">
        <ele>153</ele>
        <time>2014-06-23T09:19:51Z</time>
      </trkpt>
      <trkpt lat="43.96424" lon="0.44558">
        <ele>153</ele>
        <time>2014-06-23T09:20:00Z</time>
      </trkpt>
      <trkpt lat="43.96415" lon="0.44545">
        <ele>154</ele>
        <time>2014-06-23T09:20:17Z</time>
      </trkpt>
      <trkpt lat="43.96411" lon="0.44547">
        <ele>154</ele>
        <time>2014-06-23T09:20:32Z</time>
      </trkpt>
      <trkpt lat="43.96401" lon="0.44558">
        <ele>154</ele>
        <time>2014-06-23T09:20:50Z</time>
      </trkpt>
      <trkpt lat="43.96395" lon="0.44555">
        <ele>154</ele>
        <time>2014-06-23T09:20:56Z</time>
      </trkpt>
      <trkpt lat="43.96397" lon="0.44558">
        <ele>154</ele>
        <time>2014-06-23T09:20:58Z</time>
      </trkpt>
      <trkpt lat="43.96398" lon="0.44559">
        <ele>154</ele>
        <time>2014-06-23T09:20:59Z</time>
      </trkpt>
      <trkpt lat="43.96401" lon="0.4456">
        <ele>154</ele>
        <time>2014-06-23T09:21:07Z</time>
      </trkpt>
      <trkpt lat="43.96375" lon="0.4454">
        <ele>154</ele>
        <time>2014-06-23T09:21:20Z</time>
      </trkpt>
      <trkpt lat="43.96386" lon="0.44542">
        <ele>154</ele>
        <time>2014-06-23T09:21:26Z</time>
      </trkpt>
    </trkseg>
  </trk>
</gpx>